createdAt,value
2023-02-14T00:00:13.359Z,312.917
2023-02-14T00:01:53.884Z,312.883
2023-02-14T00:03:34.332Z,312.883
2023-02-14T00:05:14.883Z,312.883
2023-02-14T00:06:55.447Z,312.917
2023-02-14T00:08:35.922Z,312.917
2023-02-14T00:10:16.418Z,312.883
2023-02-14T00:11:56.963Z,312.867
2023-02-14T00:13:37.453Z,312.883
2023-02-14T00:15:17.852Z,312.883
2023-02-14T00:16:58.393Z,312.867
2023-02-14T00:18:38.713Z,312.883
2023-02-14T00:20:18.988Z,312.883
2023-02-14T00:21:59.294Z,312.867
2023-02-14T00:23:39.611Z,312.883
2023-02-14T00:25:19.895Z,312.867
2023-02-14T00:27:00.254Z,312.883
2023-02-14T00:28:40.556Z,312.917
2023-02-14T00:30:21.034Z,312.883
2023-02-14T00:32:01.496Z,312.883
2023-02-14T00:33:41.840Z,312.933
2023-02-14T00:35:22.256Z,312.933
2023-02-14T00:37:02.688Z,312.883
2023-02-14T00:38:43.115Z,312.917
2023-02-14T00:40:23.595Z,312.917
2023-02-14T00:42:04.036Z,312.933
2023-02-14T00:43:44.519Z,312.917
2023-02-14T00:45:25.076Z,312.933
2023-02-14T00:47:05.530Z,312.917
2023-02-14T00:48:46.013Z,312.933
2023-02-14T00:50:26.396Z,312.933
2023-02-14T00:52:06.734Z,312.917
2023-02-14T00:53:47.199Z,312.933
2023-02-14T00:55:27.700Z,312.917
2023-02-14T00:57:08.146Z,312.917
2023-02-14T00:58:48.690Z,312.917
2023-02-14T01:00:29.224Z,312.917
2023-02-14T01:02:09.766Z,312.933
2023-02-14T01:03:50.087Z,312.917
2023-02-14T01:05:30.630Z,312.917
2023-02-14T01:07:11.143Z,312.933
2023-02-14T01:08:51.684Z,312.933
2023-02-14T01:10:31.987Z,312.917
2023-02-14T01:12:12.639Z,312.917
2023-02-14T01:13:52.710Z,312.933
2023-02-14T01:15:33.014Z,312.933
2023-02-14T01:17:13.311Z,312.917
2023-02-14T01:18:53.630Z,312.95
2023-02-14T01:20:34.011Z,312.933
2023-02-14T01:22:14.438Z,312.933
2023-02-14T01:23:54.984Z,312.95
2023-02-14T01:25:35.516Z,312.933
2023-02-14T01:27:15.986Z,312.95
2023-02-14T01:28:56.480Z,312.933
2023-02-14T01:30:36.951Z,312.95
2023-02-14T01:32:17.554Z,312.95
2023-02-14T01:33:57.881Z,312.95
2023-02-14T01:35:38.426Z,312.933
2023-02-14T01:37:18.852Z,312.933
2023-02-14T01:38:59.208Z,312.95
2023-02-14T01:40:39.491Z,312.95
2023-02-14T01:42:19.751Z,312.95
2023-02-14T01:44:00.148Z,312.933
2023-02-14T01:45:40.567Z,312.95
2023-02-14T01:47:20.973Z,312.933
2023-02-14T01:49:01.482Z,312.933
2023-02-14T01:50:41.892Z,312.95
2023-02-14T01:52:22.516Z,312.95
2023-02-14T01:54:02.964Z,312.983
2023-02-14T01:55:43.472Z,312.95
2023-02-14T01:57:23.983Z,312.983
2023-02-14T01:59:04.433Z,312.983
2023-02-14T02:00:45.042Z,312.983
2023-02-14T02:02:25.407Z,312.95
2023-02-14T02:04:05.748Z,312.983
2023-02-14T02:05:46.051Z,313
2023-02-14T02:07:26.312Z,312.983
2023-02-14T02:09:06.694Z,312.983
2023-02-14T02:10:47.182Z,312.95
2023-02-14T02:12:29.825Z,312.983
2023-02-14T02:14:08.026Z,313
2023-02-14T02:15:48.326Z,312.95
2023-02-14T02:17:28.902Z,312.983
2023-02-14T02:19:09.354Z,313.083
2023-02-14T02:20:49.809Z,313.033
2023-02-14T02:22:30.267Z,313.05
2023-02-14T02:24:10.671Z,313.05
2023-02-14T02:25:51.215Z,313.05
2023-02-14T02:27:31.708Z,313.05
2023-02-14T02:29:12.125Z,313.05
2023-02-14T02:30:52.731Z,313.033
2023-02-14T02:32:32.997Z,313.033
2023-02-14T02:34:13.384Z,313.083
2023-02-14T02:35:53.730Z,313.1
2023-02-14T02:37:34.160Z,313.083
2023-02-14T02:39:14.623Z,313.05
2023-02-14T02:40:55.110Z,313.083
2023-02-14T02:42:35.570Z,313.083
2023-02-14T02:44:16.033Z,313.083
2023-02-14T02:45:56.494Z,313.1
2023-02-14T02:47:36.971Z,313.083
2023-02-14T02:49:17.373Z,313.083
2023-02-14T02:50:58.229Z,313.083
2023-02-14T02:52:38.359Z,313.05
2023-02-14T02:54:18.696Z,313.1
2023-02-14T02:55:58.955Z,313.1
2023-02-14T02:57:39.257Z,313.1
2023-02-14T02:59:19.562Z,313.15
2023-02-14T03:01:00.233Z,313.117
2023-02-14T03:02:40.145Z,313.1
2023-02-14T03:04:20.447Z,313.1
2023-02-14T03:06:00.822Z,313.117
2023-02-14T03:07:41.320Z,313.117
2023-02-14T03:09:21.781Z,313.1
2023-02-14T03:11:02.499Z,313.117
2023-02-14T03:12:42.708Z,313.117
2023-02-14T03:14:23.234Z,313.15
2023-02-14T03:16:03.820Z,313.15
2023-02-14T03:17:44.193Z,313.15
2023-02-14T03:19:24.712Z,313.15
2023-02-14T03:21:05.222Z,313.15
2023-02-14T03:22:45.776Z,313.167
2023-02-14T03:24:26.092Z,313.167
2023-02-14T03:26:06.471Z,313.15
2023-02-14T03:27:46.933Z,313.15
2023-02-14T03:29:27.312Z,313.167
2023-02-14T03:31:07.818Z,313.15
2023-02-14T03:32:47.926Z,313.117
2023-02-14T03:34:28.238Z,313.15
2023-02-14T03:36:08.689Z,313.167
2023-02-14T03:39:29.633Z,313.2
2023-02-14T03:41:10.147Z,313.2
2023-02-14T03:42:50.569Z,313.167
2023-02-14T03:44:31.036Z,313.167
2023-02-14T03:46:11.637Z,313.15
2023-02-14T03:47:52.129Z,313.15
2023-02-14T03:49:32.586Z,313.15
2023-02-14T03:51:13.022Z,313.167
2023-02-14T03:52:53.463Z,313.167
2023-02-14T03:54:34.019Z,313.167
2023-02-14T03:56:14.348Z,313.167
2023-02-14T03:57:54.642Z,313.167
2023-02-14T03:59:35.059Z,313.167
2023-02-14T04:01:15.312Z,313.167
2023-02-14T04:02:55.548Z,313.217
2023-02-14T04:04:35.870Z,313.167
2023-02-14T04:06:16.227Z,313.217
2023-02-14T04:07:56.785Z,313.217
2023-02-14T04:09:37.257Z,313.2
2023-02-14T04:11:17.745Z,313.217
2023-02-14T04:12:58.219Z,313.217
2023-02-14T04:14:38.688Z,313.217
2023-02-14T04:16:19.161Z,313.2
2023-02-14T04:17:59.565Z,313.2
2023-02-14T04:19:40.080Z,313.217
2023-02-14T04:21:20.396Z,313.217
2023-02-14T04:23:03.178Z,313.217
2023-02-14T04:24:41.334Z,313.217
2023-02-14T04:26:21.791Z,313.167
2023-02-14T04:28:02.189Z,313.217
2023-02-14T04:29:42.657Z,313.283
2023-02-14T04:31:23.185Z,313.283
2023-02-14T04:33:03.617Z,313.283
2023-02-14T04:34:44.121Z,313.283
2023-02-14T04:36:24.581Z,313.267
2023-02-14T04:38:04.991Z,313.267
2023-02-14T04:39:45.497Z,313.267
2023-02-14T04:41:25.890Z,313.283
2023-02-14T04:43:06.346Z,313.267
2023-02-14T04:44:46.806Z,313.317
2023-02-14T04:46:27.387Z,313.283
2023-02-14T04:48:07.757Z,313.267
2023-02-14T04:49:48.019Z,313.267
2023-02-14T04:51:28.327Z,313.267
2023-02-14T04:53:08.768Z,313.267
2023-02-14T04:54:49.230Z,313.317
2023-02-14T04:56:29.756Z,313.267
2023-02-14T04:58:10.190Z,313.267
2023-02-14T04:59:50.753Z,313.317
2023-02-14T05:01:31.158Z,313.317
2023-02-14T05:03:11.672Z,313.333
2023-02-14T05:04:52.179Z,313.317
2023-02-14T05:06:32.518Z,313.317
2023-02-14T05:08:12.836Z,313.267
2023-02-14T05:09:53.074Z,313.317
2023-02-14T05:11:33.430Z,313.283
2023-02-14T05:13:13.703Z,313.283
2023-02-14T05:14:53.983Z,313.283
2023-02-14T05:16:34.426Z,313.283
2023-02-14T05:18:14.680Z,313.283
2023-02-14T05:19:55.088Z,313.283
2023-02-14T05:21:35.647Z,313.317
2023-02-14T05:23:15.989Z,313.283
2023-02-14T05:24:56.256Z,313.317
2023-02-14T05:26:36.596Z,313.367
2023-02-14T05:28:17.082Z,313.317
2023-02-14T05:29:57.757Z,313.333
2023-02-14T05:31:38.149Z,313.333
2023-02-14T05:33:18.420Z,313.333
2023-02-14T05:35:00.979Z,313.333
2023-02-14T05:36:39.340Z,313.367
2023-02-14T05:38:19.924Z,313.367
2023-02-14T05:40:00.454Z,313.333
2023-02-14T05:41:40.881Z,313.333
2023-02-14T05:43:21.312Z,313.333
2023-02-14T05:45:01.680Z,313.333
2023-02-14T05:46:42.153Z,313.367
2023-02-14T05:48:22.610Z,313.333
2023-02-14T05:50:03.098Z,313.333
2023-02-14T05:51:43.547Z,313.333
2023-02-14T05:53:24.081Z,313.333
2023-02-14T05:55:04.623Z,313.367
2023-02-14T05:56:45.020Z,313.367
2023-02-14T05:58:25.485Z,313.333
2023-02-14T06:00:06.024Z,313.333
2023-02-14T06:01:46.516Z,313.333
2023-02-14T06:03:26.801Z,313.333
2023-02-14T06:05:07.310Z,313.333
2023-02-14T06:06:47.677Z,313.333
2023-02-14T06:08:28.150Z,313.333
2023-02-14T06:10:08.413Z,313.367
2023-02-14T06:11:48.735Z,313.367
2023-02-14T06:13:28.998Z,313.367
2023-02-14T06:15:09.303Z,313.383
2023-02-14T06:16:49.878Z,313.367
2023-02-14T06:18:30.273Z,313.367
2023-02-14T06:20:10.836Z,313.367
2023-02-14T06:21:51.379Z,313.383
2023-02-14T06:23:31.837Z,313.367
2023-02-14T06:25:12.258Z,313.383
2023-02-14T06:26:52.760Z,313.383
2023-02-14T06:28:33.313Z,313.367
2023-02-14T06:30:13.771Z,313.383
2023-02-14T06:31:54.200Z,313.367
2023-02-14T06:33:34.612Z,313.367
2023-02-14T06:35:14.910Z,313.383
2023-02-14T06:36:55.216Z,313.383
2023-02-14T06:38:35.620Z,313.367
2023-02-14T06:40:16.073Z,313.367
2023-02-14T06:41:56.592Z,313.383
2023-02-14T06:43:37.095Z,313.383
2023-02-14T06:45:17.600Z,313.383
2023-02-14T06:46:58.055Z,313.367
2023-02-14T06:48:38.636Z,313.367
2023-02-14T06:50:19.082Z,313.383
2023-02-14T06:51:59.519Z,313.383
2023-02-14T06:53:39.960Z,313.417
2023-02-14T06:55:20.463Z,313.417
2023-02-14T06:57:00.801Z,313.417
2023-02-14T06:58:41.090Z,313.417
2023-02-14T07:00:21.635Z,313.383
2023-02-14T07:02:01.894Z,313.417
2023-02-14T07:03:42.216Z,313.417
2023-02-14T07:05:22.628Z,313.433
2023-02-14T07:07:03.022Z,313.417
2023-02-14T07:08:43.439Z,313.433
2023-02-14T07:10:23.773Z,313.417
2023-02-14T07:12:04.227Z,313.417
2023-02-14T07:13:44.587Z,313.433
2023-02-14T07:15:24.949Z,313.417
2023-02-14T07:17:05.412Z,313.417
2023-02-14T07:18:45.866Z,313.383
2023-02-14T07:20:26.325Z,313.417
2023-02-14T07:22:06.800Z,313.417
2023-02-14T07:23:47.255Z,313.417
2023-02-14T07:25:27.746Z,313.417
2023-02-14T07:27:08.234Z,313.433
2023-02-14T07:28:48.560Z,313.417
2023-02-14T07:30:28.967Z,313.417
2023-02-14T07:32:09.346Z,313.417
2023-02-14T07:33:49.614Z,313.383
2023-02-14T07:35:29.920Z,313.483
2023-02-14T07:37:10.382Z,313.417
2023-02-14T07:38:50.786Z,313.483
2023-02-14T07:40:31.236Z,313.45
2023-02-14T07:42:11.792Z,313.483
2023-02-14T07:43:52.223Z,313.45
2023-02-14T07:45:32.603Z,313.483
2023-02-14T07:47:13.153Z,313.45
2023-02-14T07:48:53.719Z,313.45
2023-02-14T07:50:34.125Z,313.45
2023-02-14T07:52:14.572Z,313.433
2023-02-14T07:53:55.038Z,313.483
2023-02-14T07:55:35.341Z,313.483
2023-02-14T07:57:15.727Z,313.483
2023-02-14T07:58:56.161Z,313.483
2023-02-14T08:00:36.561Z,313.5
2023-02-14T08:02:16.979Z,313.45
2023-02-14T08:03:57.406Z,313.483
2023-02-14T08:05:37.812Z,313.483
2023-02-14T08:07:18.258Z,313.5
2023-02-14T08:08:58.715Z,313.45
2023-02-14T08:10:39.239Z,313.483
2023-02-14T08:12:19.695Z,313.5
2023-02-14T08:14:00.225Z,313.533
2023-02-14T08:15:40.763Z,313.533
2023-02-14T08:17:21.117Z,313.5
2023-02-14T08:19:01.598Z,313.5
2023-02-14T08:20:42.038Z,313.5
2023-02-14T08:22:22.396Z,313.533
2023-02-14T08:24:02.739Z,313.533
2023-02-14T08:25:43.089Z,313.5
2023-02-14T08:27:23.424Z,313.5
2023-02-14T08:29:03.892Z,313.55
2023-02-14T08:30:44.307Z,313.533
2023-02-14T08:32:24.947Z,313.5
2023-02-14T08:34:05.199Z,313.533
2023-02-14T08:35:45.547Z,313.5
2023-02-14T08:37:26.024Z,313.55
2023-02-14T08:39:06.402Z,313.5
2023-02-14T08:40:46.903Z,313.483
2023-02-14T08:42:27.439Z,313.55
2023-02-14T08:44:07.831Z,313.55
2023-02-14T08:45:48.296Z,313.55
2023-02-14T08:47:28.643Z,313.55
2023-02-14T08:49:08.937Z,313.533
2023-02-14T08:50:49.463Z,313.55
2023-02-14T08:52:29.813Z,313.583
2023-02-14T08:54:10.116Z,313.55
2023-02-14T08:55:50.475Z,313.55
2023-02-14T08:57:31.025Z,313.55
2023-02-14T08:59:11.496Z,313.583
2023-02-14T09:00:51.957Z,313.583
2023-02-14T09:02:32.312Z,313.55
2023-02-14T09:04:12.860Z,313.583
2023-02-14T09:05:53.238Z,313.6
2023-02-14T09:07:33.754Z,313.583
2023-02-14T09:09:14.255Z,313.6
2023-02-14T09:10:54.657Z,313.617
2023-02-14T09:12:35.064Z,313.583
2023-02-14T09:14:16.148Z,313.6
2023-02-14T09:15:55.843Z,313.583
2023-02-14T09:17:36.431Z,313.583
2023-02-14T09:19:17.688Z,313.583
2023-02-14T09:20:57.158Z,313.583
2023-02-14T09:22:37.285Z,313.583
2023-02-14T09:24:17.657Z,313.617
2023-02-14T09:25:58.101Z,313.617
2023-02-14T09:27:38.594Z,313.617
2023-02-14T09:29:19.083Z,313.617
2023-02-14T09:31:00.015Z,313.6
2023-02-14T09:32:40.026Z,313.617
2023-02-14T09:34:20.625Z,313.617
2023-02-14T09:36:01.033Z,313.617
2023-02-14T09:37:41.511Z,313.667
2023-02-14T09:39:22.166Z,313.65
2023-02-14T09:41:02.537Z,313.667
2023-02-14T09:42:42.713Z,313.667
2023-02-14T09:44:23.579Z,313.667
2023-02-14T09:46:03.544Z,313.65
2023-02-14T09:47:43.924Z,313.65
2023-02-14T09:49:24.547Z,313.65
2023-02-14T09:51:04.767Z,313.667
2023-02-14T09:52:45.252Z,313.65
2023-02-14T09:54:25.675Z,313.65
2023-02-14T09:56:06.169Z,313.667
2023-02-14T09:57:46.599Z,313.65
2023-02-14T09:59:27.116Z,313.667
2023-02-14T10:01:07.648Z,313.7
2023-02-14T10:02:47.910Z,313.75
2023-02-14T10:04:28.394Z,313.75
2023-02-14T10:06:08.801Z,313.7
2023-02-14T10:07:49.168Z,313.717
2023-02-14T10:09:29.465Z,313.717
2023-02-14T10:11:09.871Z,313.7
2023-02-14T10:12:50.306Z,313.717
2023-02-14T10:14:30.799Z,313.75
2023-02-14T10:16:11.293Z,313.717
2023-02-14T10:17:51.685Z,313.717
2023-02-14T10:19:32.086Z,313.717
2023-02-14T10:21:12.593Z,313.7
2023-02-14T10:22:52.979Z,313.7
2023-02-14T10:24:33.556Z,313.75
2023-02-14T10:26:13.898Z,313.75
2023-02-14T10:27:54.456Z,313.767
2023-02-14T10:29:35.011Z,313.717
2023-02-14T10:31:15.475Z,313.717
2023-02-14T10:32:55.739Z,313.717
2023-02-14T10:34:36.051Z,313.75
2023-02-14T10:36:16.452Z,313.75
2023-02-14T10:37:56.935Z,313.75
2023-02-14T10:39:37.457Z,313.717
2023-02-14T10:41:17.763Z,313.75
2023-02-14T10:42:58.294Z,313.767
2023-02-14T10:44:38.947Z,313.767
2023-02-14T10:46:19.319Z,313.783
2023-02-14T10:47:59.739Z,313.767
2023-02-14T10:49:40.164Z,313.783
2023-02-14T10:51:20.632Z,313.767
2023-02-14T10:53:01.087Z,313.767
2023-02-14T10:54:41.644Z,313.767
2023-02-14T10:56:22.045Z,313.783
2023-02-14T10:58:02.460Z,313.767
2023-02-14T10:59:42.858Z,313.783
2023-02-14T11:01:23.430Z,313.783
2023-02-14T11:03:03.638Z,313.817
2023-02-14T11:04:44.117Z,313.783
2023-02-14T11:06:24.585Z,313.817
2023-02-14T11:08:05.053Z,313.783
2023-02-14T11:09:45.609Z,313.817
2023-02-14T11:11:25.929Z,313.817
2023-02-14T11:13:06.405Z,313.817
2023-02-14T11:14:46.751Z,313.817
2023-02-14T11:16:27.203Z,313.817
2023-02-14T11:18:07.584Z,313.783
2023-02-14T11:19:47.998Z,313.783
2023-02-14T11:21:28.345Z,313.817
2023-02-14T11:23:08.779Z,313.783
2023-02-14T11:24:49.264Z,313.817
2023-02-14T11:26:29.634Z,313.817
2023-02-14T11:28:10.041Z,313.817
2023-02-14T11:29:50.574Z,313.817
2023-02-14T11:31:31.078Z,313.833
2023-02-14T11:33:11.407Z,313.867
2023-02-14T11:34:51.793Z,313.833
2023-02-14T11:36:32.171Z,313.867
2023-02-14T11:38:12.603Z,313.833
2023-02-14T11:39:53.014Z,313.833
2023-02-14T11:41:33.497Z,313.867
2023-02-14T11:43:15.045Z,313.833
2023-02-14T11:44:54.500Z,313.867
2023-02-14T11:46:38.609Z,313.833
2023-02-14T11:48:17.781Z,313.867
2023-02-14T11:49:55.758Z,313.867
2023-02-14T11:51:36.056Z,313.883
2023-02-14T11:53:16.481Z,313.883
2023-02-14T11:54:57.172Z,313.883
2023-02-14T11:56:37.353Z,313.883
2023-02-14T11:58:17.772Z,313.883
2023-02-14T11:59:58.200Z,313.917
2023-02-14T12:01:38.683Z,313.867
2023-02-14T12:03:19.148Z,313.883
2023-02-14T12:04:59.502Z,313.883
2023-02-14T12:06:39.935Z,313.883
2023-02-14T12:08:20.384Z,313.883
2023-02-14T12:10:00.839Z,313.917
2023-02-14T12:11:41.358Z,313.867
2023-02-14T12:13:21.668Z,313.933
2023-02-14T12:15:02.174Z,313.95
2023-02-14T12:16:42.334Z,313.95
2023-02-14T12:18:22.580Z,313.95
2023-02-14T12:20:02.871Z,313.933
2023-02-14T12:21:43.186Z,313.933
2023-02-14T12:23:23.573Z,313.983
2023-02-14T12:25:03.900Z,313.933
2023-02-14T12:26:44.511Z,313.95
2023-02-14T12:28:24.754Z,313.933
2023-02-14T12:30:05.076Z,313.933
2023-02-14T12:31:45.664Z,313.983
2023-02-14T12:33:26.037Z,313.983
2023-02-14T12:35:06.442Z,313.983
2023-02-14T12:36:46.846Z,313.983
2023-02-14T12:38:27.288Z,313.983
2023-02-14T12:40:07.772Z,313.95
2023-02-14T12:41:48.249Z,314
2023-02-14T12:43:28.730Z,314
2023-02-14T12:45:09.206Z,314
2023-02-14T12:46:49.670Z,314
2023-02-14T12:48:30.036Z,313.983
2023-02-14T12:50:10.304Z,313.983
2023-02-14T12:51:50.603Z,314
2023-02-14T12:53:31.082Z,314
2023-02-14T12:55:11.641Z,314
2023-02-14T12:56:51.924Z,314.033
2023-02-14T12:58:32.322Z,314.033
2023-02-14T13:00:12.766Z,314
2023-02-14T13:01:53.497Z,314
2023-02-14T13:03:33.603Z,314
2023-02-14T13:05:13.970Z,314.033
2023-02-14T13:06:54.521Z,314
2023-02-14T13:08:35.024Z,314.05
2023-02-14T13:10:15.611Z,314.033
2023-02-14T13:11:56.025Z,314.05
2023-02-14T13:13:36.345Z,314.05
2023-02-14T13:15:16.742Z,314.05
2023-02-14T13:16:57.038Z,314.05
2023-02-14T13:18:37.492Z,314.05
2023-02-14T13:20:17.801Z,314.05
2023-02-14T13:21:59.779Z,314.05
2023-02-14T13:23:38.584Z,314.067
2023-02-14T13:25:18.960Z,314.05
2023-02-14T13:26:59.280Z,314.05
2023-02-14T13:28:39.566Z,314.05
2023-02-14T13:30:19.939Z,314.067
2023-02-14T13:32:00.442Z,314.05
2023-02-14T13:33:40.705Z,314.067
2023-02-14T13:35:21.176Z,314.1
2023-02-14T13:37:01.592Z,314.067
2023-02-14T13:38:42.021Z,314.067
2023-02-14T13:40:22.313Z,314.067
2023-02-14T13:42:02.841Z,314.067
2023-02-14T13:43:43.328Z,314.067
2023-02-14T13:45:23.792Z,314.067
2023-02-14T13:47:04.217Z,314.1
2023-02-14T13:48:44.719Z,314.067
2023-02-14T13:50:25.153Z,314.05
2023-02-14T13:52:05.592Z,314.1
2023-02-14T13:53:46.064Z,314.1
2023-02-14T13:55:26.483Z,314.067
2023-02-14T13:57:07.013Z,314.067
2023-02-14T13:58:47.229Z,314.117
2023-02-14T14:00:28.042Z,314.117
2023-02-14T14:02:08.133Z,314.117
2023-02-14T14:03:48.558Z,314.1
2023-02-14T14:05:28.928Z,314.117
2023-02-14T14:07:09.410Z,314.15
2023-02-14T14:08:49.881Z,314.117
2023-02-14T14:10:30.322Z,314.117
2023-02-14T14:12:10.736Z,314.117
2023-02-14T14:13:51.235Z,314.15
2023-02-14T14:15:31.684Z,314.15
2023-02-14T14:17:12.039Z,314.117
2023-02-14T14:18:52.402Z,314.117
2023-02-14T14:20:32.703Z,314.117
2023-02-14T14:22:12.996Z,314.117
2023-02-14T14:23:53.509Z,314.117
2023-02-14T14:25:33.815Z,314.1
2023-02-14T14:27:14.102Z,314.15
2023-02-14T14:28:54.476Z,314.117
2023-02-14T14:30:34.815Z,314.117
2023-02-14T14:32:15.067Z,314.2
2023-02-14T14:33:55.442Z,314.2
2023-02-14T14:35:35.655Z,314.2
2023-02-14T14:37:15.974Z,314.2
2023-02-14T14:38:56.376Z,314.2
2023-02-14T14:40:36.794Z,314.2
2023-02-14T14:42:17.179Z,314.2
2023-02-14T14:43:57.565Z,314.217
2023-02-14T14:45:38.060Z,314.2
2023-02-14T14:47:18.403Z,314.2
2023-02-14T14:48:58.904Z,314.2
2023-02-14T14:50:39.312Z,314.2
2023-02-14T14:52:19.773Z,314.233
2023-02-14T14:54:00.332Z,314.2
2023-02-14T14:55:40.867Z,314.217
2023-02-14T14:57:21.285Z,314.217
2023-02-14T14:59:01.687Z,314.233
2023-02-14T15:00:42.089Z,314.233
2023-02-14T15:02:22.516Z,314.233
2023-02-14T15:04:03.010Z,314.2
2023-02-14T15:05:43.312Z,314.233
2023-02-14T15:07:23.705Z,314.233
2023-02-14T15:09:04.095Z,314.2
2023-02-14T15:10:44.517Z,314.217
2023-02-14T15:12:24.992Z,314.217
2023-02-14T15:14:05.461Z,314.233
2023-02-14T15:15:45.970Z,314.267
2023-02-14T15:17:26.402Z,314.317
2023-02-14T15:19:06.780Z,314.267
2023-02-14T15:20:47.226Z,314.283
2023-02-14T15:22:27.631Z,314.267
2023-02-14T15:24:08.110Z,314.317
2023-02-14T15:25:48.554Z,314.283
2023-02-14T15:27:28.961Z,314.283
2023-02-14T15:29:09.327Z,314.267
2023-02-14T15:30:49.758Z,314.267
2023-02-14T15:32:30.053Z,314.267
2023-02-14T15:34:10.563Z,314.283
2023-02-14T15:35:50.922Z,314.283
2023-02-14T15:37:31.397Z,314.267
2023-02-14T15:39:11.824Z,314.283
2023-02-14T15:40:52.247Z,314.283
2023-02-14T15:42:32.871Z,314.283
2023-02-14T15:44:13.218Z,314.283
2023-02-14T15:45:53.546Z,314.267
2023-02-14T15:47:33.955Z,314.283
2023-02-14T15:49:14.263Z,314.267
2023-02-14T15:50:54.663Z,314.283
2023-02-14T15:52:35.097Z,314.317
2023-02-14T15:54:15.376Z,314.317
2023-02-14T15:55:55.793Z,314.283
2023-02-14T15:57:36.096Z,314.317
2023-02-14T15:59:16.439Z,314.283
2023-02-14T16:00:56.873Z,314.317
2023-02-14T16:02:37.291Z,314.283
2023-02-14T16:04:17.602Z,314.317
2023-02-14T16:05:57.936Z,314.317
2023-02-14T16:07:38.169Z,314.317
2023-02-14T16:09:18.646Z,314.283
2023-02-14T16:10:59.494Z,314.317
2023-02-14T16:12:39.421Z,314.317
2023-02-14T16:14:19.722Z,314.317
2023-02-14T16:16:00.263Z,314.317
2023-02-14T16:17:40.330Z,314.283
2023-02-14T16:19:20.639Z,314.317
2023-02-14T16:21:01.385Z,314.283
2023-02-14T16:22:41.324Z,314.317
2023-02-14T16:24:21.679Z,314.317
2023-02-14T16:26:02.058Z,314.317
2023-02-14T16:27:42.374Z,314.367
2023-02-14T16:29:22.728Z,314.317
2023-02-14T16:31:03.640Z,314.333
2023-02-14T16:32:43.654Z,314.367
2023-02-14T16:34:23.942Z,314.367
2023-02-14T16:36:04.428Z,314.367
2023-02-14T16:37:44.680Z,314.333
2023-02-14T16:39:24.973Z,314.333
2023-02-14T16:41:05.351Z,314.367
2023-02-14T16:42:45.681Z,314.317
2023-02-14T16:44:26.032Z,314.333
2023-02-14T16:46:06.486Z,314.333
2023-02-14T16:47:46.819Z,314.333
2023-02-14T16:49:27.221Z,314.333
2023-02-14T16:51:07.636Z,314.333
2023-02-14T16:52:47.996Z,314.333
2023-02-14T16:54:28.373Z,314.333
2023-02-14T16:56:08.706Z,314.367
2023-02-14T16:57:48.918Z,314.367
2023-02-14T16:59:29.352Z,314.4
2023-02-14T17:01:09.720Z,314.367
2023-02-14T17:02:49.972Z,314.433
2023-02-14T17:04:30.339Z,314.4
2023-02-14T17:06:10.731Z,314.383
2023-02-14T17:07:51.059Z,314.4
2023-02-14T17:09:31.521Z,314.4
2023-02-14T17:11:11.749Z,314.4
2023-02-14T17:12:52.012Z,314.433
2023-02-14T17:14:35.450Z,314.4
2023-02-14T17:16:12.842Z,314.433
2023-02-14T17:17:53.136Z,314.4
2023-02-14T17:19:33.476Z,314.4
2023-02-14T17:21:13.922Z,314.4
2023-02-14T17:22:54.240Z,314.4
2023-02-14T17:24:34.657Z,314.4
2023-02-14T17:26:15.107Z,314.4
2023-02-14T17:27:55.361Z,314.433
2023-02-14T17:29:35.720Z,314.4
2023-02-14T17:31:16.148Z,314.433
2023-02-14T17:32:56.277Z,314.4
2023-02-14T17:34:36.759Z,314.433
2023-02-14T17:36:17.108Z,314.4
2023-02-14T17:37:57.461Z,314.4
2023-02-14T17:39:37.796Z,314.45
2023-02-14T17:41:18.264Z,314.45
2023-02-14T17:42:58.591Z,314.433
2023-02-14T17:44:38.935Z,314.45
2023-02-14T17:46:19.414Z,314.433
2023-02-14T17:47:59.796Z,314.433
2023-02-14T17:49:40.172Z,314.45
2023-02-14T17:51:20.585Z,314.45
2023-02-14T17:53:00.969Z,314.433
2023-02-14T17:54:41.268Z,314.45
2023-02-14T17:56:21.665Z,314.45
2023-02-14T17:58:02.049Z,314.45
2023-02-14T17:59:42.459Z,314.483
2023-02-14T18:01:22.862Z,314.45
2023-02-14T18:03:03.193Z,314.433
2023-02-14T18:04:43.850Z,314.4
2023-02-14T18:06:27.068Z,314.483
2023-02-14T18:08:04.416Z,314.45
2023-02-14T18:09:44.827Z,314.483
2023-02-14T18:11:25.102Z,314.433
2023-02-14T18:13:05.503Z,314.483
2023-02-14T18:14:45.831Z,314.483
2023-02-14T18:16:26.773Z,314.483
2023-02-14T18:18:06.589Z,314.5
2023-02-14T18:19:46.865Z,314.45
2023-02-14T18:21:27.236Z,314.483
2023-02-14T18:23:07.564Z,314.483
2023-02-14T18:24:47.856Z,314.5
2023-02-14T18:26:28.254Z,314.483
2023-02-14T18:28:08.660Z,314.483
2023-02-14T18:29:49.020Z,314.483
2023-02-14T18:31:29.503Z,314.483
2023-02-14T18:33:09.780Z,314.45
2023-02-14T18:34:50.185Z,314.483
2023-02-14T18:36:30.539Z,314.483
2023-02-14T18:38:10.911Z,314.5
2023-02-14T18:39:51.271Z,314.533
2023-02-14T18:41:31.665Z,314.5
2023-02-14T18:43:12.068Z,314.533
2023-02-14T18:44:52.378Z,314.5
2023-02-14T18:46:32.804Z,314.533
2023-02-14T18:48:16.273Z,314.5
2023-02-14T18:49:53.852Z,314.533
2023-02-14T18:51:33.936Z,314.533
2023-02-14T18:53:14.293Z,314.5
2023-02-14T18:54:54.711Z,314.5
2023-02-14T18:56:35.011Z,314.533
2023-02-14T18:58:15.383Z,314.533
2023-02-14T18:59:55.983Z,314.533
2023-02-14T19:01:36.088Z,314.5
2023-02-14T19:03:16.509Z,314.5
2023-02-14T19:04:56.810Z,314.55
2023-02-14T19:06:37.227Z,314.533
2023-02-14T19:08:17.603Z,314.55
2023-02-14T19:09:58.051Z,314.533
2023-02-14T19:11:38.339Z,314.55
2023-02-14T19:13:20.723Z,314.55
2023-02-14T19:14:59.094Z,314.533
2023-02-14T19:16:39.535Z,314.55
2023-02-14T19:18:19.874Z,314.533
2023-02-14T19:20:00.193Z,314.55
2023-02-14T19:21:40.595Z,314.55
2023-02-14T19:23:20.963Z,314.533
2023-02-14T19:25:01.334Z,314.533
2023-02-14T19:26:41.652Z,314.55
2023-02-14T19:28:22.036Z,314.533
2023-02-14T19:30:02.350Z,314.533
2023-02-14T19:31:42.873Z,314.567
2023-02-14T19:33:23.153Z,314.55
2023-02-14T19:35:03.461Z,314.567
2023-02-14T19:36:43.838Z,314.6
2023-02-14T19:38:24.181Z,314.6
2023-02-14T19:40:04.443Z,314.567
2023-02-14T19:41:44.763Z,314.567
2023-02-14T19:43:25.056Z,314.567
2023-02-14T19:45:05.521Z,314.567
2023-02-14T19:46:45.869Z,314.567
2023-02-14T19:48:25.929Z,314.567
2023-02-14T19:50:06.290Z,314.6
2023-02-14T19:51:46.627Z,314.567
2023-02-14T19:53:26.991Z,314.567
2023-02-14T19:55:07.364Z,314.567
2023-02-14T19:56:47.661Z,314.567
2023-02-14T19:58:28.035Z,314.567
2023-02-14T20:00:08.454Z,314.567
2023-02-14T20:01:48.767Z,314.567
2023-02-14T20:03:29.141Z,314.567
2023-02-14T20:05:09.522Z,314.567
2023-02-14T20:06:49.969Z,314.617
2023-02-14T20:08:30.245Z,314.65
2023-02-14T20:10:10.587Z,314.65
2023-02-14T20:11:51.032Z,314.617
2023-02-14T20:13:31.311Z,314.617
2023-02-14T20:15:11.675Z,314.65
2023-02-14T20:16:52.164Z,314.65
2023-02-14T20:18:32.518Z,314.617
2023-02-14T20:20:15.999Z,314.65
2023-02-14T20:21:53.300Z,314.65
2023-02-14T20:23:33.676Z,314.667
2023-02-14T20:25:14.117Z,314.667
2023-02-14T20:26:54.445Z,314.667
2023-02-14T20:28:34.808Z,314.7
2023-02-14T20:30:15.367Z,314.667
2023-02-14T20:31:55.832Z,314.667
2023-02-14T20:33:39.091Z,314.667